Time;durP1;ratioP1;P1;durP2;ratioP2;P2;SDS_P1;SDS_P2;PMS_P1;PMS_P2;Temp;Humidity;BMP_temperature;BMP_pressure;BME280_temperature;BME280_humidity;BME280_pressure;Samples;Min_cycle;Max_cycle;Signal;HPM_P1;HPM_P2
2022/08/05 00:00:57;;;;;;;6.60;4.88;;;;;;;23.17;52.10;100033.84;5127853;27;20037;-29
2022/08/05 00:03:23;;;;;;;7.95;4.78;;;;;;;23.09;52.90;100040.00;5128462;27;20043;-27
2022/08/05 00:05:48;;;;;;;7.60;4.85;;;;;;;23.17;52.57;100024.84;5128059;27;20402;-29
2022/08/05 00:08:14;;;;;;;8.07;4.80;;;;;;;23.22;51.85;100016.59;5128261;27;20027;-27
2022/08/05 00:10:39;;;;;;;6.40;4.85;;;;;;;23.15;52.62;100018.91;5128058;27;20031;-28
2022/08/05 00:13:05;;;;;;;7.97;5.15;;;;;;;23.11;52.22;100013.31;5128000;27;20395;-28
2022/08/05 00:15:30;;;;;;;10.18;5.43;;;;;;;23.19;52.44;100026.19;5127898;27;20095;-28
2022/08/05 00:17:55;;;;;;;8.75;5.07;;;;;;;23.12;53.00;100031.22;5128220;27;20019;-29
2022/08/05 00:20:21;;;;;;;7.35;5.40;;;;;;;23.24;52.03;100028.78;5128062;27;20136;-28
2022/08/05 00:22:46;;;;;;;6.78;4.97;;;;;;;23.18;52.83;100032.72;5127677;27;20019;-31
2022/08/05 00:25:12;;;;;;;9.23;4.72;;;;;;;23.22;52.78;100030.22;5127506;27;20062;-30
2022/08/05 00:27:37;;;;;;;8.98;5.00;;;;;;;23.24;52.72;100042.38;5128065;27;20486;-27
2022/08/05 00:30:04;;;;;;;8.65;4.88;;;;;;;23.21;53.37;100031.31;5127899;27;20027;-30
2022/08/05 00:32:29;;;;;;;6.07;4.65;;;;;;;23.07;53.20;100023.19;5108834;27;20473;-30
2022/08/05 00:34:55;;;;;;;9.18;5.55;;;;;;;23.10;53.41;100041.59;5127888;27;20110;-30
2022/08/05 00:37:20;;;;;;;6.50;4.88;;;;;;;22.55;54.80;100022.50;5127490;27;20021;-33
2022/08/05 00:39:45;;;;;;;8.20;5.10;;;;;;;22.34;56.51;100014.72;5127622;27;20052;-30
2022/08/05 00:42:11;;;;;;;7.63;4.53;;;;;;;22.38;56.87;100029.31;5108963;27;20027;-28
2022/08/05 00:44:36;;;;;;;8.05;5.25;;;;;;;22.39;57.38;100041.81;5127185;27;20027;-30
2022/08/05 00:47:02;;;;;;;6.15;4.80;;;;;;;22.33;58.24;100037.59;5127392;28;20033;-30
2022/08/05 00:49:27;;;;;;;7.82;4.75;;;;;;;22.29;58.51;100041.16;5109079;28;20026;-28
2022/08/05 00:51:53;;;;;;;7.28;5.10;;;;;;;22.17;58.45;100023.41;5127630;28;20092;-27
2022/08/05 00:54:19;;;;;;;13.70;5.43;;;;;;;22.11;58.79;100021.88;5127292;28;20026;-33
2022/08/05 00:56:44;;;;;;;9.20;5.18;;;;;;;22.21;58.01;100034.47;5127978;28;20035;-28
2022/08/05 00:59:10;;;;;;;7.45;5.03;;;;;;;22.11;58.23;100042.78;5127080;28;20038;-28
2022/08/05 01:01:35;;;;;;;8.07;5.55;;;;;;;22.26;57.39;100016.22;5127477;28;20482;-27
2022/08/05 01:04:01;;;;;;;8.40;5.18;;;;;;;22.37;57.17;100027.72;5127674;28;20072;-29
2022/08/05 01:06:27;;;;;;;7.13;4.72;;;;;;;22.31;57.07;100037.03;5108590;28;20059;-28
2022/08/05 01:08:52;;;;;;;7.45;5.30;;;;;;;22.23;57.42;100029.53;5127152;28;20033;-33
2022/08/05 01:11:26;;;;;;;10.48;5.40;;;;;;;22.17;57.60;100022.59;5127420;28;20039;-27
2022/08/05 01:14:12;;;;;;;12.13;5.90;;;;;;;22.22;58.57;100033.38;5108935;28;20019;-29
2022/08/05 01:16:52;;;;;;;8.82;5.75;;;;;;;22.13;58.17;100032.44;5108709;28;20135;-31
2022/08/05 01:19:20;;;;;;;8.10;5.75;;;;;;;22.05;58.28;100021.16;5127243;28;20607;-30
2022/08/05 01:22:12;;;;;;;8.93;5.93;;;;;;;22.17;58.06;100034.28;5127852;28;20030;-29
2022/08/05 01:25:07;;;;;;;10.68;5.97;;;;;;;22.10;58.69;100036.56;5108880;28;20458;-29
2022/08/05 01:27:53;;;;;;;8.85;5.97;;;;;;;21.89;58.04;100032.56;5096604;28;20414;-30
2022/08/05 01:30:20;;;;;;;7.60;5.57;;;;;;;21.89;58.34;100025.22;5108989;28;20031;-29
2022/08/05 01:32:48;;;;;;;8.55;5.93;;;;;;;21.82;58.63;100017.47;5127256;28;20099;-33
2022/08/05 01:35:21;;;;;;;7.40;5.72;;;;;;;21.83;58.87;100031.81;5108673;28;20037;-30
2022/08/05 01:37:46;;;;;;;8.77;5.05;;;;;;;21.61;59.98;100027.78;5108802;28;20019;-28
2022/08/05 01:40:14;;;;;;;8.02;5.47;;;;;;;21.78;59.41;100021.03;5127351;28;20489;-27
2022/08/05 01:42:41;;;;;;;;;;;;;;;21.16;61.31;100031.91;5109595;28;20027;-29
2022/08/05 01:45:08;;;;;;;7.77;5.17;;;;;;;20.89;62.33;100035.22;5108458;28;19976;-27
2022/08/05 01:47:35;;;;;;;6.43;4.85;;;;;;;21.06;61.83;100032.81;5109005;28;20023;-28
2022/08/05 01:50:06;;;;;;;6.95;4.75;;;;;;;20.87;62.37;100044.41;5108601;28;20030;-28
2022/08/05 01:52:35;;;;;;;6.05;4.75;;;;;;;20.71;62.25;100015.88;5127101;27;20022;-28
2022/08/05 01:55:04;;;;;;;9.13;5.20;;;;;;;21.36;59.98;100020.00;5112241;27;20065;-27
2022/08/05 01:57:42;;;;;;;7.50;5.53;;;;;;;21.40;60.10;100015.59;5112390;27;20035;-29
2022/08/05 02:00:09;;;;;;;9.15;6.00;;;;;;;21.33;60.66;100023.28;5130736;27;20026;-27
2022/08/05 02:02:36;;;;;;;7.32;5.50;;;;;;;20.74;62.10;99999.06;5112342;27;20104;-30
2022/08/05 02:05:08;;;;;;;7.03;5.00;;;;;;;20.54;62.71;100034.47;5111951;27;20103;-27
2022/08/05 02:07:34;;;;;;;7.07;5.25;;;;;;;20.75;62.42;100033.16;5112361;27;20525;-30
2022/08/05 02:10:01;;;;;;;6.60;4.57;;;;;;;20.92;61.99;100021.06;5130732;27;20034;-28
2022/08/05 02:12:51;;;;;;;8.95;5.93;;;;;;;21.11;61.53;100023.84;5112064;27;20524;-32
2022/08/05 02:15:22;;;;;;;7.85;5.50;;;;;;;21.40;60.26;100027.25;5130050;27;20039;-30
2022/08/05 02:18:04;;;;;;;10.80;4.90;;;;;;;20.65;62.17;100011.59;5130732;27;20026;-28
2022/08/05 02:20:35;;;;;;;7.75;5.30;;;;;;;20.58;62.77;100030.09;5130510;27;20052;-27
2022/08/05 02:23:07;;;;;;;7.80;5.30;;;;;;;20.56;62.47;100018.72;5111787;27;20027;-29
2022/08/05 02:25:37;;;;;;;8.32;4.75;;;;;;;20.39;62.79;100030.81;5111612;27;20096;-31
2022/08/05 02:28:04;;;;;;;6.25;4.63;;;;;;;20.22;63.73;100027.69;5130482;27;20130;-27
2022/08/05 02:30:38;;;;;;;9.70;5.22;;;;;;;19.88;63.90;100017.69;5111753;27;20034;-27
2022/08/05 02:33:04;;;;;;;6.88;5.28;;;;;;;19.98;63.51;100031.16;5130116;27;20031;-27
2022/08/05 02:35:34;;;;;;;6.18;4.53;;;;;;;19.89;63.87;100024.69;5130299;27;20410;-29
2022/08/05 02:38:00;;;;;;;8.07;4.82;;;;;;;19.98;63.27;100023.03;5111616;27;20019;-32
2022/08/05 02:40:26;;;;;;;10.63;5.60;;;;;;;20.76;61.43;100029.38;5111168;27;20042;-30
2022/08/05 02:42:54;;;;;;;12.32;5.30;;;;;;;20.47;63.40;100018.53;5130061;27;20024;-27
2022/08/05 02:45:24;;;;;;;19.83;6.05;;;;;;;20.00;64.65;99996.47;5129567;27;20059;-28
2022/08/05 02:47:53;;;;;;;14.80;6.30;;;;;;;19.89;65.72;100021.19;5111548;27;20027;-28
2022/08/05 02:50:21;;;;;;;11.75;6.25;;;;;;;20.02;65.42;100024.06;5129697;27;20066;-28
2022/08/05 02:52:47;;;;;;;7.82;6.20;;;;;;;20.28;66.02;100008.41;5111151;27;20387;-28
2022/08/05 02:55:13;;;;;;;18.33;6.43;;;;;;;20.38;65.36;100012.91;5111045;27;20482;-30
2022/08/05 02:57:40;;;;;;;10.90;6.00;;;;;;;20.45;65.13;100013.41;5111198;27;20072;-28
2022/08/05 03:00:07;;;;;;;13.07;7.00;;;;;;;20.47;65.06;100022.06;5111544;27;20027;-34
2022/08/05 03:02:40;;;;;;;8.25;6.03;;;;;;;20.72;64.47;100020.22;5129683;27;20023;-28
2022/08/05 03:05:09;;;;;;;12.02;6.07;;;;;;;20.41;65.47;100028.63;5111094;27;20035;-29
2022/08/05 03:07:37;;;;;;;9.25;5.72;;;;;;;20.23;64.42;100010.38;5110945;27;20923;-27
2022/08/05 03:10:03;;;;;;;7.60;6.00;;;;;;;20.45;63.50;100016.13;5111427;27;20034;-27
2022/08/05 03:12:38;;;;;;;9.13;5.47;;;;;;;20.37;62.53;100022.16;5129717;27;20034;-31
2022/08/05 03:15:06;;;;;;;8.63;5.65;;;;;;;20.31;62.98;100019.75;5129361;27;20125;-28
2022/08/05 03:17:32;;;;;;;;;;;;;;;19.97;63.40;100029.50;5111270;27;20113;-27
2022/08/05 03:19:57;;;;;;;7.57;5.50;;;;;;;20.13;63.11;100011.25;5129065;27;20009;-31
2022/08/05 03:22:23;;;;;;;8.57;5.20;;;;;;;19.98;64.17;100020.31;5129430;27;20019;-28
2022/08/05 03:24:50;;;;;;;9.52;5.35;;;;;;;19.71;65.80;100020.75;5110628;27;20633;-27
2022/08/05 03:27:15;;;;;;;9.70;5.78;;;;;;;19.47;65.49;100036.81;5110122;27;20054;-29
2022/08/05 03:29:41;;;;;;;9.38;5.45;;;;;;;19.64;65.33;100037.28;5129138;27;20478;-27
2022/08/05 03:32:07;;;;;;;10.63;5.85;;;;;;;19.65;65.13;100038.88;5110525;27;20088;-33
2022/08/05 03:34:33;;;;;;;8.40;5.10;;;;;;;19.51;65.44;100031.69;5110202;27;20046;-27
2022/08/05 03:37:00;;;;;;;9.98;6.18;;;;;;;19.87;65.18;100035.00;5110238;27;20405;-27
2022/08/05 03:39:25;;;;;;;11.48;5.85;;;;;;;20.14;64.62;100031.00;5110451;27;20029;-30
2022/08/05 03:41:51;;;;;;;9.13;6.70;;;;;;;19.88;65.99;100036.63;5128937;27;20101;-27
2022/08/05 03:44:16;;;;;;;9.25;6.72;;;;;;;20.18;65.45;100032.06;5128850;27;20023;-30
2022/08/05 03:46:41;;;;;;;12.02;6.95;;;;;;;20.37;63.88;100016.75;5128521;27;20066;-28
2022/08/05 03:49:07;;;;;;;9.20;6.88;;;;;;;20.55;63.18;100028.72;5128652;27;20379;-27
2022/08/05 03:51:41;;;;;;;11.60;7.10;;;;;;;20.56;63.89;100041.19;5128982;27;20697;-34
2022/08/05 03:54:18;;;;;;;13.35;7.03;;;;;;;20.38;63.81;100033.78;5128811;27;20049;-28
2022/08/05 03:56:47;;;;;;;12.05;7.18;;;;;;;20.07;64.33;100017.81;5110126;27;20031;-28
2022/08/05 03:59:21;;;;;;;18.92;6.75;;;;;;;20.36;63.38;100004.28;5109883;27;20027;-29
2022/08/05 04:01:50;;;;;;;10.77;6.80;;;;;;;20.49;63.68;100032.59;5109909;27;20030;-27
2022/08/05 04:04:17;;;;;;;9.40;6.97;;;;;;;20.36;63.31;100017.81;5128706;27;20053;-27
2022/08/05 04:06:44;;;;;;;12.80;6.72;;;;;;;20.36;63.44;100031.34;5109774;27;20035;-32
2022/08/05 04:09:10;;;;;;;11.00;6.40;;;;;;;20.36;63.53;100035.97;5109639;27;20027;-28
2022/08/05 04:11:36;;;;;;;9.95;6.45;;;;;;;20.41;63.34;100023.19;5128278;27;20292;-28
2022/08/05 04:14:02;;;;;;;8.88;6.32;;;;;;;20.61;62.98;100038.47;5128348;27;20041;-28
2022/08/05 04:16:28;;;;;;;11.68;6.95;;;;;;;20.60;63.15;100038.75;5109397;27;20026;-28
2022/08/05 04:18:53;;;;;;;9.20;7.10;;;;;;;20.56;63.67;100024.16;5128597;27;20031;-29
2022/08/05 04:21:19;;;;;;;10.30;7.20;;;;;;;20.34;63.87;100001.03;5127636;27;20027;-28
2022/08/05 04:23:44;;;;;;;10.38;6.85;;;;;;;20.48;63.66;100015.53;5128721;27;20395;-31
2022/08/05 04:26:12;;;;;;;10.45;7.20;;;;;;;20.38;64.38;100031.88;5127958;27;20034;-28
2022/08/05 04:28:37;;;;;;;13.00;8.07;;;;;;;20.16;64.87;100007.16;5109534;27;20484;-30
2022/08/05 04:31:03;;;;;;;10.73;7.60;;;;;;;20.26;64.72;100023.31;5128010;27;20031;-31
2022/08/05 04:33:28;;;;;;;9.45;7.25;;;;;;;20.36;64.67;100022.44;5128123;27;20455;-27
2022/08/05 04:35:54;;;;;;;15.45;8.57;;;;;;;20.52;63.94;100028.53;5128191;27;20023;-28
2022/08/05 04:38:19;;;;;;;11.98;9.32;;;;;;;20.72;63.61;100030.22;5127600;27;20083;-31
2022/08/05 04:40:45;;;;;;;12.98;10.65;;;;;;;20.75;63.33;100010.69;5127906;27;20024;-27
2022/08/05 04:43:10;;;;;;;17.65;10.60;;;;;;;20.94;63.14;100025.09;5127321;27;20026;-27
2022/08/05 04:45:36;;;;;;;19.38;11.02;;;;;;;21.22;62.15;100020.69;5127545;27;20054;-28
2022/08/05 04:48:13;;;;;;;11.80;9.38;;;;;;;21.05;61.57;100020.38;5127951;27;20397;-28
2022/08/05 04:50:40;;;;;;;15.50;9.40;;;;;;;21.20;60.55;100006.63;5109326;28;20843;-30
2022/08/05 04:53:06;;;;;;;15.13;8.77;;;;;;;21.20;60.58;100006.63;5127771;28;20060;-27
2022/08/05 04:55:32;;;;;;;11.40;7.78;;;;;;;21.33;59.93;100004.28;5109079;28;20398;-27
2022/08/05 04:57:57;;;;;;;14.60;7.57;;;;;;;21.34;59.86;100022.19;5109315;28;20027;-29
2022/08/05 05:00:23;;;;;;;11.07;7.13;;;;;;;21.40;59.22;100004.75;5109189;28;20027;-28
2022/08/05 05:02:49;;;;;;;13.98;7.45;;;;;;;21.54;58.70;100015.72;5109417;28;20042;-29
2022/08/05 05:05:14;;;;;;;8.52;7.13;;;;;;;21.83;58.25;100015.53;5109144;28;20036;-32
2022/08/05 05:07:40;;;;;;;15.13;10.55;;;;;;;21.76;58.29;100017.81;5127601;28;20060;-27
2022/08/05 05:10:05;;;;;;;13.65;8.65;;;;;;;21.92;57.91;100016.47;5127591;28;20046;-28
2022/08/05 05:12:31;;;;;;;11.95;6.85;;;;;;;21.92;57.84;100010.25;5109313;28;20445;-28
2022/08/05 05:14:57;;;;;;;11.18;6.95;;;;;;;21.90;57.71;100020.59;5109638;28;20538;-29
2022/08/05 05:17:22;;;;;;;9.05;6.25;;;;;;;22.04;57.12;100014.09;5109510;28;20023;-27
2022/08/05 05:19:48;;;;;;;8.10;6.03;;;;;;;22.23;56.30;100022.25;5109605;28;20027;-28
2022/08/05 05:22:14;;;;;;;10.00;7.65;;;;;;;22.43;56.51;100010.22;5127506;28;20689;-27
2022/08/05 05:24:39;;;;;;;9.40;7.25;;;;;;;22.66;54.67;100013.06;5127465;28;20037;-33
2022/08/05 05:27:05;;;;;;;9.77;5.78;;;;;;;22.80;53.69;100002.19;5126909;27;20031;-32
2022/08/05 05:29:30;;;;;;;7.10;5.45;;;;;;;22.79;52.99;99997.88;5129952;27;20463;-35
2022/08/05 05:31:55;;;;;;;8.20;5.63;;;;;;;22.79;54.04;99995.94;5110546;28;20024;-31
2022/08/05 05:34:22;;;;;;;9.10;5.57;;;;;;;23.27;52.67;100011.03;5111216;28;20042;-28
2022/08/05 05:36:47;;;;;;;8.70;5.88;;;;;;;23.31;52.20;100013.97;5110936;28;20023;-28
2022/08/05 05:39:13;;;;;;;8.77;5.57;;;;;;;23.34;51.79;100018.81;5110735;28;20110;-28
2022/08/05 05:41:38;;;;;;;6.65;5.05;;;;;;;23.36;51.20;100011.94;5110534;28;20051;-27
2022/08/05 05:44:05;;;;;;;10.38;5.53;;;;;;;23.52;51.49;100017.84;5110676;28;20024;-27
2022/08/05 05:46:30;;;;;;;9.98;5.32;;;;;;;23.65;51.74;100006.09;5091890;28;20059;-30
2022/08/05 05:48:56;;;;;;;10.07;5.22;;;;;;;23.63;51.06;100011.06;5110419;28;20028;-28
2022/08/05 05:51:23;;;;;;;8.35;5.15;;;;;;;23.51;50.11;99999.09;5110140;28;20104;-37
2022/08/05 05:53:50;;;;;;;6.97;4.97;;;;;;;23.62;50.97;100017.63;5091973;28;20103;-28
2022/08/05 05:56:15;;;;;;;6.33;4.83;;;;;;;23.69;50.81;100011.75;5091852;28;20044;-29
2022/08/05 05:58:41;;;;;;;7.10;4.68;;;;;;;23.93;49.67;100014.22;5110765;28;20027;-28
2022/08/05 06:01:07;;;;;;;9.52;5.05;;;;;;;23.94;48.87;100012.28;5110621;28;20092;-30
2022/08/05 06:03:32;;;;;;;7.35;4.95;;;;;;;24.22;48.59;100007.50;5110684;28;20024;-30
2022/08/05 06:05:57;;;;;;;8.55;5.30;;;;;;;24.56;48.97;100011.53;5109979;28;20471;-31
2022/08/05 06:08:23;;;;;;;9.68;5.03;;;;;;;24.77;47.32;100012.59;5110161;28;20028;-28
2022/08/05 06:10:48;;;;;;;8.35;5.25;;;;;;;24.51;46.99;100017.16;5109889;28;20452;-32
2022/08/05 06:13:14;;;;;;;7.53;4.80;;;;;;;24.52;47.71;100010.56;5091733;28;20465;-28
2022/08/05 06:15:39;;;;;;;7.55;5.00;;;;;;;24.50;47.42;100012.81;5091656;28;20028;-28
2022/08/05 06:18:05;;;;;;;8.55;5.10;;;;;;;24.79;47.58;100010.38;5091750;28;20445;-29
2022/08/05 06:20:30;;;;;;;8.55;5.10;;;;;;;24.85;47.60;100000.13;5110262;28;20458;-29
2022/08/05 06:22:57;;;;;;;9.48;4.97;;;;;;;24.96;46.90;100003.38;5110073;28;20426;-33
2022/08/05 06:25:23;;;;;;;10.95;4.95;;;;;;;25.10;47.49;99998.59;5090931;28;20063;-31
2022/08/05 06:27:48;;;;;;;9.45;5.30;;;;;;;25.20;47.38;99997.47;5109780;28;20054;-35
2022/08/05 06:30:14;;;;;;;9.75;4.80;;;;;;;25.32;46.24;99994.16;5110152;28;20039;-28
2022/08/05 06:32:42;;;;;;;9.63;4.97;;;;;;;25.25;46.22;99995.44;5109573;28;20108;-28
2022/08/05 06:35:08;;;;;;;7.78;4.82;;;;;;;25.32;46.47;100010.53;5091225;28;20042;-32
2022/08/05 06:37:33;;;;;;;6.50;4.85;;;;;;;25.32;46.03;99992.22;5109325;28;20486;-28
2022/08/05 06:39:58;;;;;;;9.68;4.68;;;;;;;25.52;45.88;100004.47;5108790;28;20037;-28
2022/08/05 06:42:24;;;;;;;9.40;4.35;;;;;;;25.81;45.44;100013.94;5109413;28;20050;-28
2022/08/05 06:44:49;;;;;;;8.25;4.80;;;;;;;25.73;45.55;100009.28;5109120;28;20041;-28
2022/08/05 06:47:15;;;;;;;9.30;4.90;;;;;;;25.92;45.73;100014.44;5109407;28;20398;-28
2022/08/05 06:49:40;;;;;;;8.35;4.70;;;;;;;26.29;45.13;100007.44;5108896;28;20027;-29
2022/08/05 06:52:06;;;;;;;7.22;4.53;;;;;;;26.46;43.89;100017.53;5109375;28;20059;-28
2022/08/05 06:54:31;;;;;;;11.75;4.82;;;;;;;26.44;44.57;100008.84;5108761;28;20073;-29
2022/08/05 06:56:57;;;;;;;7.70;4.78;;;;;;;26.43;44.58;100020.91;5109089;28;20028;-31
2022/08/05 06:59:22;;;;;;;12.38;5.03;;;;;;;26.26;44.85;100014.38;5108927;28;20448;-38
2022/08/05 07:01:48;;;;;;;8.52;4.57;;;;;;;26.62;44.80;100017.81;5108913;28;20509;-28
2022/08/05 07:04:13;;;;;;;7.38;5.05;;;;;;;26.76;44.92;100012.94;5108924;28;20039;-28
2022/08/05 07:06:39;;;;;;;21.20;10.77;;;;;;;27.02;44.21;100014.75;5108801;28;20032;-28
2022/08/05 07:09:04;;;;;;;9.80;5.70;;;;;;;27.16;43.70;99998.88;5108854;28;20537;-28
2022/08/05 07:11:30;;;;;;;8.00;5.47;;;;;;;27.45;42.96;100005.47;5108544;28;20027;-30
2022/08/05 07:16:49;;;;;;;6.93;5.35;;;;;;;27.39;43.15;100010.34;5108572;28;20096;-31
2022/08/05 07:19:17;;;;;;;7.63;5.13;;;;;;;27.41;43.41;99999.06;5090350;28;20134;-29
2022/08/05 07:21:48;;;;;;;8.05;5.00;;;;;;;27.65;43.92;100012.06;5089515;28;20027;-30
2022/08/05 07:24:13;;;;;;;6.95;5.22;;;;;;;27.81;42.81;100001.31;5090252;28;20035;-28
2022/08/05 07:26:39;;;;;;;10.60;5.15;;;;;;;28.17;43.33;100008.84;5108556;28;20031;-27
2022/08/05 07:29:05;;;;;;;8.10;5.03;;;;;;;28.28;42.02;100011.16;5108505;28;20036;-28
2022/08/05 07:31:30;;;;;;;7.55;4.88;;;;;;;28.27;42.19;100012.31;5108134;28;20107;-29
2022/08/05 07:33:56;;;;;;;7.97;5.60;;;;;;;28.47;42.82;100002.44;5108311;28;20466;-29
2022/08/05 07:36:21;;;;;;;8.80;5.70;;;;;;;28.61;43.69;100013.91;5108238;28;20092;-29
2022/08/05 07:38:47;;;;;;;11.65;7.07;;;;;;;29.05;42.72;100016.84;5108136;28;20804;-31
2022/08/05 07:41:17;;;;;;;6.28;5.15;;;;;;;29.07;41.34;100005.53;5108086;28;20188;-35
2022/08/05 07:43:43;;;;;;;7.10;4.75;;;;;;;28.98;40.75;100013.91;5089465;28;20504;-30
2022/08/05 07:46:08;;;;;;;6.30;4.97;;;;;;;28.75;41.50;100011.63;5089289;28;20043;-31
2022/08/05 07:48:34;;;;;;;8.68;4.95;;;;;;;28.86;41.01;100000.97;5107921;28;20459;-28
2022/08/05 07:50:59;;;;;;;7.03;4.80;;;;;;;29.00;40.82;99995.13;5107296;28;20031;-27
2022/08/05 07:53:25;;;;;;;9.32;4.78;;;;;;;28.95;40.43;99981.63;5107541;28;20020;-29
2022/08/05 07:55:51;;;;;;;7.10;4.50;;;;;;;29.09;40.09;100006.00;5107731;28;20028;-27
2022/08/05 07:58:16;;;;;;;6.82;5.10;;;;;;;29.33;39.71;99999.69;5089379;28;20449;-31
2022/08/05 08:00:43;;;;;;;6.68;4.90;;;;;;;29.24;38.83;99986.09;5107696;28;20024;-30
2022/08/05 08:03:12;;;;;;;6.55;4.47;;;;;;;29.45;39.70;99989.47;5089224;28;20028;-32
2022/08/05 08:05:43;;;;;;;5.65;4.82;;;;;;;29.75;38.57;99996.59;5088869;28;20027;-30
2022/08/05 08:08:09;;;;;;;6.57;4.72;;;;;;;29.88;38.33;99995.41;5107704;28;20509;-31
2022/08/05 08:10:35;;;;;;;5.53;4.55;;;;;;;29.59;38.01;99983.59;5089400;28;20101;-31
2022/08/05 08:13:00;;;;;;;6.78;4.45;;;;;;;29.69;37.04;99986.97;5107713;28;20441;-28
2022/08/05 08:15:26;;;;;;;4.63;4.00;;;;;;;29.73;37.70;99977.72;5107543;28;20024;-29
2022/08/05 08:17:51;;;;;;;6.50;4.70;;;;;;;30.01;35.74;99988.66;5107332;28;20024;-28
2022/08/05 08:20:16;;;;;;;6.18;4.40;;;;;;;30.19;36.36;99988.34;5107326;28;20020;-29
2022/08/05 08:22:42;;;;;;;5.85;3.78;;;;;;;30.46;36.55;99994.16;5089106;28;20016;-29
2022/08/05 08:25:08;;;;;;;5.80;4.38;;;;;;;30.46;35.92;99963.91;5107440;28;20110;-30
2022/08/05 08:27:33;;;;;;;6.45;4.47;;;;;;;30.79;36.40;99967.06;5107099;28;20142;-31
2022/08/05 08:29:59;;;;;;;6.20;3.90;;;;;;;31.07;35.85;99993.69;5107273;28;20059;-35
2022/08/05 08:32:24;;;;;;;5.38;4.40;;;;;;;30.80;35.87;99978.88;5088553;28;20027;-31
2022/08/05 08:34:50;;;;;;;8.35;4.55;;;;;;;30.75;35.44;99965.38;5107179;28;20027;-28
2022/08/05 08:37:16;;;;;;;6.40;3.80;;;;;;;30.72;35.45;99974.38;5107151;28;20035;-36
2022/08/05 08:39:42;;;;;;;6.93;5.30;;;;;;;30.94;35.27;99946.19;5107161;28;20046;-28
2022/08/05 08:42:09;;;;;;;5.35;4.03;;;;;;;31.06;35.14;99959.03;5107271;28;20024;-28
2022/08/05 08:44:35;;;;;;;5.93;3.30;;;;;;;30.99;33.99;99958.88;5088912;28;20032;-33
2022/08/05 08:47:06;;;;;;;5.22;4.00;;;;;;;31.31;34.49;99937.53;5088387;28;20415;-29
2022/08/05 08:49:34;;;;;;;6.82;4.72;;;;;;;31.57;34.75;99955.41;5107092;28;20024;-32
2022/08/05 08:52:16;;;;;;;6.43;4.38;;;;;;;31.58;34.14;99957.00;5089112;28;20437;-32
2022/08/05 08:54:43;;;;;;;8.65;4.80;;;;;;;31.95;34.00;99949.00;5088911;28;20034;-29
2022/08/05 08:57:10;;;;;;;4.90;3.70;;;;;;;32.08;33.88;99941.41;5088669;28;20028;-30
2022/08/05 08:59:36;;;;;;;15.50;8.70;;;;;;;32.34;33.10;99926.06;5088327;28;20116;-32
2022/08/05 09:02:05;;;;;;;6.43;4.43;;;;;;;32.66;33.18;99939.59;5107906;28;20497;-28
2022/08/05 09:04:35;;;;;;;6.85;4.40;;;;;;;32.58;32.02;99941.44;5092521;28;20491;-28
2022/08/05 09:07:00;;;;;;;16.63;9.93;;;;;;;32.65;32.77;99930.50;5092888;28;20387;-37
2022/08/05 09:09:26;;;;;;;38.95;25.77;;;;;;;32.78;30.34;99940.16;5110700;28;20498;-28
2022/08/05 09:11:52;;;;;;;20.00;14.20;;;;;;;32.67;29.91;99933.69;5111145;28;20023;-29
2022/08/05 09:14:18;;;;;;;16.45;10.65;;;;;;;32.86;31.30;99940.28;5092836;28;20114;-30
2022/08/05 09:16:43;;;;;;;16.05;10.55;;;;;;;33.39;30.41;99926.38;5111006;28;20039;-28
2022/08/05 09:19:09;;;;;;;12.70;7.65;;;;;;;33.35;30.13;99907.00;5111029;28;20506;-28
2022/08/05 09:21:34;;;;;;;14.02;9.32;;;;;;;33.89;29.27;99917.84;5110863;28;20526;-33
2022/08/05 09:24:08;;;;;;;23.33;13.80;;;;;;;34.03;29.07;99935.38;5092551;28;20574;-28
2022/08/05 09:26:36;;;;;;;15.15;8.50;;;;;;;34.14;28.33;99913.38;5092098;28;20031;-30
2022/08/05 09:29:05;;;;;;;11.77;8.57;;;;;;;34.18;28.19;99927.22;5110868;28;20024;-28
2022/08/05 09:31:32;;;;;;;23.35;16.05;;;;;;;34.05;29.22;99934.19;5110405;28;20038;-33
2022/08/05 09:34:03;;;;;;;24.58;17.98;;;;;;;34.45;29.54;99925.06;5092167;28;20031;-33
2022/08/05 09:36:40;;;;;;;58.90;42.28;;;;;;;34.25;29.70;99929.28;5092115;28;20039;-28
2022/08/05 09:39:08;;;;;;;24.65;18.20;;;;;;;34.19;29.08;99926.06;5092147;28;20023;-35
2022/08/05 09:41:33;;;;;;;21.70;16.48;;;;;;;34.61;29.10;99930.31;5092000;28;20031;-33
2022/08/05 09:43:59;;;;;;;28.63;21.85;;;;;;;34.54;28.67;99903.38;5110352;28;20050;-29
2022/08/05 09:46:30;;;;;;;91.15;69.55;;;;;;;34.72;28.64;99919.34;5110155;28;20108;-32
2022/08/05 09:48:57;;;;;;;17.00;10.57;;;;;;;34.91;28.72;99921.03;5092033;28;20034;-33
2022/08/05 09:51:37;;;;;;;10.35;7.28;;;;;;;34.90;28.21;99919.41;5091572;28;20031;-39
2022/08/05 09:54:06;;;;;;;39.90;30.52;;;;;;;34.59;27.54;99900.25;5110853;28;20058;-30
2022/08/05 09:56:33;;;;;;;67.57;60.35;;;;;;;34.56;27.94;99901.00;5092007;28;20027;-31
2022/08/05 09:59:09;;;;;;;17.20;13.30;;;;;;;34.95;28.00;99905.22;5091836;28;20031;-28
2022/08/05 10:01:39;;;;;;;29.95;23.48;;;;;;;34.85;28.42;99897.63;5091478;28;20043;-31
2022/08/05 10:04:14;;;;;;;35.85;29.60;;;;;;;34.64;26.84;99907.38;5110275;28;20077;-28
2022/08/05 10:06:51;;;;;;;52.17;41.78;;;;;;;34.62;27.79;99893.91;5091736;28;20027;-29
2022/08/05 10:09:20;;;;;;;60.55;47.28;;;;;;;34.67;27.97;99890.00;5091730;28;20422;-28
2022/08/05 10:11:46;;;;;;;47.70;36.70;;;;;;;34.91;27.23;99883.03;5091350;28;20035;-34
2022/08/05 10:14:27;;;;;;;24.25;21.20;;;;;;;35.01;28.98;99898.09;5109443;28;20427;-31
2022/08/05 10:16:57;;;;;;;6.00;4.57;;;;;;;34.83;28.48;99884.16;5091431;28;20038;-28
2022/08/05 10:19:24;;;;;;;12.00;6.28;;;;;;;34.42;28.24;99885.09;5109928;28;20184;-32
2022/08/05 10:21:50;;;;;;;8.20;5.32;;;;;;;34.56;28.77;99876.09;5091436;28;20042;-31
2022/08/05 10:24:20;;;;;;;7.07;4.80;;;;;;;34.80;28.05;99882.97;5110121;28;20032;-30
2022/08/05 10:26:48;;;;;;;7.50;5.43;;;;;;;34.93;27.61;99871.56;5091429;28;20035;-28
2022/08/05 10:29:13;;;;;;;9.52;6.20;;;;;;;35.35;27.89;99867.34;5091493;28;20020;-30
2022/08/05 10:31:39;;;;;;;8.35;4.90;;;;;;;35.12;28.10;99862.91;5091643;28;20030;-28
2022/08/05 10:34:09;;;;;;;8.50;5.10;;;;;;;34.83;28.43;99858.44;5110002;28;20023;-29
2022/08/05 10:36:39;;;;;;;7.03;5.07;;;;;;;35.15;28.67;99848.31;5091445;28;20445;-31
2022/08/05 10:39:16;;;;;;;9.95;6.63;;;;;;;35.26;27.46;99864.19;5109839;28;20026;-30
2022/08/05 10:41:52;;;;;;;8.48;6.70;;;;;;;35.30;27.52;99862.22;5090764;28;20441;-31
2022/08/05 10:44:20;;;;;;;9.30;6.55;;;;;;;35.68;27.42;99849.63;5091203;28;20027;-30
2022/08/05 10:46:51;;;;;;;8.80;6.30;;;;;;;36.27;26.30;99849.25;5109271;28;20058;-35
2022/08/05 10:49:17;;;;;;;10.75;7.00;;;;;;;36.37;25.91;99842.88;5091115;28;20073;-29
2022/08/05 10:51:44;;;;;;;11.07;6.77;;;;;;;36.42;26.37;99844.44;5090397;28;20518;-29
2022/08/05 10:54:10;;;;;;;10.93;6.53;;;;;;;36.26;25.73;99831.00;5090898;28;20261;-29
2022/08/05 10:56:44;;;;;;;7.10;5.85;;;;;;;35.78;26.89;99829.44;5091048;28;20261;-28
2022/08/05 10:59:09;;;;;;;8.05;6.22;;;;;;;36.17;25.92;99822.28;5091070;28;20031;-35
2022/08/05 11:01:43;;;;;;;10.68;7.63;;;;;;;36.32;26.08;99837.72;5109154;28;20027;-30
2022/08/05 11:04:21;;;;;;;11.85;7.22;;;;;;;35.64;26.44;99834.94;5090834;28;20023;-33
2022/08/05 11:06:56;;;;;;;9.00;6.88;;;;;;;36.47;25.93;99834.91;5090188;28;20066;-31
2022/08/05 11:09:24;;;;;;;8.32;6.07;;;;;;;36.52;26.12;99820.63;5090323;28;20394;-36
2022/08/05 11:11:51;;;;;;;10.95;6.38;;;;;;;36.71;24.78;99833.28;5090738;28;20030;-28
2022/08/05 11:14:32;;;;;;;8.15;6.47;;;;;;;36.55;25.54;99819.81;5090385;28;20028;-28
2022/08/05 11:17:26;;;;;;;21.25;14.77;;;;;;;36.40;26.57;99825.41;5090362;28;20035;-36
2022/08/05 11:19:54;;;;;;;14.80;12.23;;;;;;;37.03;25.01;99815.69;5108819;28;20036;-28
2022/08/05 11:22:41;;;;;;;16.73;12.65;;;;;;;37.31;25.45;99815.53;5090242;28;20039;-30
2022/08/05 11:25:32;;;;;;;12.68;9.38;;;;;;;37.08;24.09;99818.78;5108038;28;20039;-29
2022/08/05 11:28:10;;;;;;;11.18;8.77;;;;;;;37.19;24.74;99814.00;5090002;28;20509;-33
2022/08/05 11:30:54;;;;;;;9.48;7.53;;;;;;;37.59;24.46;99817.31;5108147;28;20076;-31